createdAt,value
2019-02-02T00:00:44.483Z,98834.19
2019-02-02T00:05:52.230Z,98824.25
2019-02-02T00:10:59.275Z,98821.31
2019-02-02T00:16:06.345Z,98819.34
2019-02-02T00:21:13.745Z,98803.38
2019-02-02T00:26:19.856Z,98792.36
2019-02-02T00:31:25.701Z,98799.32
2019-02-02T00:36:31.717Z,98798.57
2019-02-02T00:41:39.176Z,98790.24
2019-02-02T00:46:44.795Z,98781.83
2019-02-02T00:51:50.654Z,98785.45
2019-02-02T00:56:57.312Z,98793.10
2019-02-02T01:02:03.341Z,98810.34
2019-02-02T01:07:09.381Z,98815.12
2019-02-02T01:12:15.621Z,98819.25
2019-02-02T01:17:21.239Z,98822.67
2019-02-02T01:22:27.419Z,98817.75
2019-02-02T01:27:33.380Z,98819.02
2019-02-02T01:32:39.564Z,98827.89
2019-02-02T01:37:45.653Z,98820.80
2019-02-02T01:42:52.103Z,98814.38
2019-02-02T01:47:58.330Z,98815.31
2019-02-02T01:53:04.706Z,98816.70
2019-02-02T01:58:16.813Z,98826.18
2019-02-02T02:03:18.283Z,98804.34
2019-02-02T02:08:25.166Z,98785.81
2019-02-02T02:13:31.087Z,98791.85
2019-02-02T02:18:36.700Z,98813.29
2019-02-02T02:23:42.560Z,98808.01
2019-02-02T02:28:49.054Z,98800.81
2019-02-02T02:33:54.669Z,98792.23
2019-02-02T02:39:00.446Z,98785.72
2019-02-02T02:44:07.670Z,98780.23
2019-02-02T02:49:13.381Z,98769.33
2019-02-02T02:54:19.414Z,98775.05
2019-02-02T02:59:25.727Z,98788.81
2019-02-02T03:04:31.422Z,98786.86
2019-02-02T03:09:37.278Z,98757.13
2019-02-02T03:14:43.049Z,98764.00
2019-02-02T03:19:48.833Z,98753.63
2019-02-02T03:24:54.671Z,98761.52
2019-02-02T03:30:01.379Z,98762.79
2019-02-02T03:35:08.916Z,98742.70
2019-02-02T03:40:19.449Z,98740.14
2019-02-02T03:45:25.872Z,98739.20
2019-02-02T03:50:31.448Z,98753.99
2019-02-02T03:55:37.146Z,98762.14
2019-02-02T04:00:42.878Z,98758.15
2019-02-02T04:05:50.105Z,98779.77
2019-02-02T04:10:55.862Z,98775.50
2019-02-02T04:16:01.485Z,98777.27
2019-02-02T04:21:07.670Z,98778.94
2019-02-02T04:26:13.896Z,98758.95
2019-02-02T04:31:19.581Z,98769.20
2019-02-02T04:36:26.441Z,98773.11
2019-02-02T04:41:32.143Z,98752.83
2019-02-02T04:46:42.723Z,98739.73
2019-02-02T04:51:48.342Z,98761.30
2019-02-02T04:56:54.371Z,98778.19
2019-02-02T05:02:01.754Z,98769.30
2019-02-02T05:07:08.183Z,98740.66
2019-02-02T05:12:15.740Z,98710.84
2019-02-02T05:17:21.760Z,98705.16
2019-02-02T05:22:27.581Z,98714.07
2019-02-02T05:27:33.858Z,98716.48
2019-02-02T05:32:42.414Z,98725.62
2019-02-02T05:37:48.422Z,98741.48
2019-02-02T05:42:54.243Z,98737.81
2019-02-02T05:48:01.121Z,98725.89
2019-02-02T05:53:06.684Z,98723.55
2019-02-02T05:58:12.544Z,98748.79
2019-02-02T06:03:19.577Z,98760.42
2019-02-02T06:08:25.591Z,98757.58
2019-02-02T06:13:32.001Z,98763.28
2019-02-02T06:18:37.934Z,98787.05
2019-02-02T06:23:44.073Z,98791.09
2019-02-02T06:28:50.710Z,98782.79
2019-02-02T06:33:56.461Z,98785.63
2019-02-02T06:39:05.022Z,98795.75
2019-02-02T06:44:11.048Z,98791.47
2019-02-02T06:49:17.079Z,98802.63
2019-02-02T06:54:23.365Z,98799.22
2019-02-02T06:59:29.339Z,98792.16
2019-02-02T07:04:35.107Z,98778.62
2019-02-02T07:09:41.292Z,98761.28
2019-02-02T07:14:46.982Z,98768.47
2019-02-02T07:19:52.618Z,98773.36
2019-02-02T07:24:59.731Z,98781.73
2019-02-02T07:30:28.366Z,98811.66
2019-02-02T07:35:29.243Z,98829.72
2019-02-02T07:40:36.879Z,98839.87
2019-02-02T07:45:43.016Z,98831.14
2019-02-02T07:50:49.502Z,98832.08
2019-02-02T07:55:56.907Z,98845.95
2019-02-02T08:01:02.758Z,98845.09
2019-02-02T08:06:09.582Z,98843.05
2019-02-02T08:11:16.058Z,98843.63
2019-02-02T08:16:23.482Z,98821.17
2019-02-02T08:21:29.250Z,98851.80
2019-02-02T08:26:35.916Z,98860.03
2019-02-02T08:31:42.997Z,98879.87
2019-02-02T08:36:48.924Z,98877.39
2019-02-02T08:41:54.989Z,98870.64
2019-02-02T08:47:01.193Z,98875.13
2019-02-02T08:52:07.396Z,98867.95
2019-02-02T08:57:15.215Z,98878.25
2019-02-02T09:02:20.944Z,98882.86
2019-02-02T09:07:27.327Z,98889.66
2019-02-02T09:12:34.206Z,98876.34
2019-02-02T09:17:41.232Z,98910.81
2019-02-02T09:22:47.975Z,98913.61
2019-02-02T09:27:53.973Z,98922.54
2019-02-02T09:32:59.780Z,98919.86
2019-02-02T09:38:06.058Z,98923.38
2019-02-02T09:43:11.989Z,98916.20
2019-02-02T09:48:18.433Z,98927.70
2019-02-02T09:53:25.673Z,98917.61
2019-02-02T09:58:31.830Z,98929.11
2019-02-02T10:03:38.484Z,98933.23
2019-02-02T10:08:44.184Z,98923.67
2019-02-02T10:13:52.175Z,98920.23
2019-02-02T10:18:58.246Z,98922.36
2019-02-02T10:24:05.796Z,98914.86
2019-02-02T10:29:11.878Z,98930.98
2019-02-02T10:34:18.344Z,98931.20
2019-02-02T10:39:24.552Z,98932.02
2019-02-02T10:44:30.493Z,98916.02
2019-02-02T10:49:38.160Z,98921.67
2019-02-02T10:54:44.342Z,98920.16
2019-02-02T10:59:50.293Z,98921.53
2019-02-02T11:04:56.436Z,98931.71
2019-02-02T11:10:02.543Z,98929.72
2019-02-02T11:15:18.370Z,98935.78
2019-02-02T11:20:33.023Z,98938.11
2019-02-02T11:25:40.392Z,98939.30
2019-02-02T11:30:46.709Z,98936.61
2019-02-02T11:35:52.552Z,98924.30
2019-02-02T11:40:59.343Z,98918.53
2019-02-02T11:46:05.403Z,98915.98
2019-02-02T11:51:11.130Z,98919.05
2019-02-02T11:56:17.424Z,98921.41
2019-02-02T12:01:24.858Z,98922.56
2019-02-02T12:06:31.337Z,98935.81
2019-02-02T12:11:37.157Z,98954.11
2019-02-02T12:16:43.810Z,98969.77
2019-02-02T12:21:49.615Z,98968.98
2019-02-02T12:26:55.349Z,98958.66
2019-02-02T12:32:02.370Z,98956.97
2019-02-02T12:37:10.061Z,98957.73
2019-02-02T12:42:16.649Z,98947.62
2019-02-02T12:47:22.942Z,98939.92
2019-02-02T12:52:29.800Z,98946.54
2019-02-02T12:57:35.987Z,98964.61
2019-02-02T13:02:42.019Z,98960.48
2019-02-02T13:07:48.178Z,98957.42
2019-02-02T13:12:54.838Z,98981.27
2019-02-02T13:18:01.005Z,98992.58
2019-02-02T13:23:08.201Z,99018.83
2019-02-02T13:28:15.292Z,99027.37
2019-02-02T13:33:21.296Z,99040.87
2019-02-02T13:38:27.058Z,99047.85
2019-02-02T13:43:33.119Z,99049.84
2019-02-02T13:48:40.393Z,99051.63
2019-02-02T13:53:47.471Z,99048.39
2019-02-02T13:58:54.062Z,99044.78
2019-02-02T14:04:00.919Z,99049.20
2019-02-02T14:09:08.193Z,99050.03
2019-02-02T14:14:14.080Z,99063.53
2019-02-02T14:19:20.666Z,99053.66
2019-02-02T14:24:28.234Z,99061.52
2019-02-02T14:29:34.013Z,99074.93
2019-02-02T14:34:40.671Z,99079.33
2019-02-02T14:39:49.288Z,99087.05
2019-02-02T14:44:55.272Z,99087.97
2019-02-02T14:50:01.613Z,99090.23
2019-02-02T14:55:15.614Z,99101.52
2019-02-02T15:00:25.782Z,99106.01
2019-02-02T15:05:42.618Z,99124.20
2019-02-02T15:10:40.258Z,99132.65
2019-02-02T15:15:46.006Z,99141.45
2019-02-02T15:20:51.732Z,99134.17
2019-02-02T15:25:57.726Z,99143.92
2019-02-02T15:31:03.880Z,99154.45
2019-02-02T15:36:10.734Z,99158.81
2019-02-02T15:41:16.738Z,99152.59
2019-02-02T15:46:22.481Z,99157.69
2019-02-02T15:51:39.810Z,99163.20
2019-02-02T15:56:36.241Z,99172.03
2019-02-02T16:01:44.415Z,99163.86
2019-02-02T16:06:50.477Z,99172.03
2019-02-02T16:11:56.434Z,99176.00
2019-02-02T16:17:02.704Z,99197.22
2019-02-02T16:22:08.809Z,99216.33
2019-02-02T16:27:14.374Z,99233.81
2019-02-02T16:32:20.690Z,99244.83
2019-02-02T16:37:26.460Z,99249.80
2019-02-02T16:42:35.830Z,99256.64
2019-02-02T16:47:40.495Z,99277.09
2019-02-02T16:52:46.730Z,99277.67
2019-02-02T16:57:52.964Z,99290.09
2019-02-02T17:02:59.522Z,99299.09
2019-02-02T17:08:05.223Z,99303.69
2019-02-02T17:13:13.974Z,99305.36
2019-02-02T17:18:20.160Z,99314.42
2019-02-02T17:23:27.118Z,99336.00
2019-02-02T17:28:33.382Z,99346.36
2019-02-02T17:33:39.934Z,99345.20
2019-02-02T17:38:46.399Z,99379.59
2019-02-02T17:43:52.768Z,99378.08
2019-02-02T17:48:58.742Z,99362.31
2019-02-02T17:54:06.490Z,99368.69
2019-02-02T17:59:12.214Z,99376.09
2019-02-02T18:04:19.080Z,99385.28
2019-02-02T18:09:24.839Z,99378.88
2019-02-02T18:14:31.595Z,99389.42
2019-02-02T18:19:37.582Z,99394.95
2019-02-02T18:24:44.242Z,99419.20
2019-02-02T18:29:50.727Z,99415.17
2019-02-02T18:34:57.036Z,99406.04
2019-02-02T18:40:03.979Z,99404.79
2019-02-02T18:45:18.916Z,99399.08
2019-02-02T18:50:26.268Z,99423.37
2019-02-02T18:55:41.671Z,99444.45
2019-02-02T19:00:47.659Z,99455.39
2019-02-02T19:05:53.581Z,99464.13
2019-02-02T19:11:03.495Z,99475.78
2019-02-02T19:16:08.612Z,99487.70
2019-02-02T19:21:15.418Z,99488.67
2019-02-02T19:26:21.772Z,99483.80
2019-02-02T19:31:28.650Z,99491.07
2019-02-02T19:36:35.990Z,99504.94
2019-02-02T19:41:43.916Z,99516.23
2019-02-02T19:46:50.582Z,99534.08
2019-02-02T19:51:57.048Z,99546.75
2019-02-02T19:57:03.449Z,99564.45
2019-02-02T20:02:09.730Z,99578.16
2019-02-02T20:07:17.176Z,99590.86
2019-02-02T20:12:23.544Z,99598.08
2019-02-02T20:17:30.835Z,99610.30
2019-02-02T20:22:38.453Z,99630.88
2019-02-02T20:27:46.007Z,99641.54
2019-02-02T20:32:52.447Z,99641.95
2019-02-02T20:37:58.955Z,99652.56
2019-02-02T20:43:05.134Z,99667.80
2019-02-02T20:48:12.464Z,99688.02
2019-02-02T20:53:18.775Z,99674.27
2019-02-02T20:58:25.221Z,99687.00
2019-02-02T21:03:31.431Z,99694.56
2019-02-02T21:08:38.400Z,99700.16
2019-02-02T21:13:46.832Z,99726.83
2019-02-02T21:18:52.816Z,99727.92
2019-02-02T21:23:58.577Z,99720.61
2019-02-02T21:29:05.412Z,99725.92
2019-02-02T21:34:12.288Z,99719.09
2019-02-02T21:39:19.409Z,99744.63
2019-02-02T21:44:25.646Z,99761.66
2019-02-02T21:49:34.533Z,99751.50
2019-02-02T21:54:41.796Z,99768.68
2019-02-02T21:59:48.607Z,99775.50
2019-02-02T22:04:54.625Z,99780.23
2019-02-02T22:10:01.791Z,99787.39
2019-02-02T22:15:17.389Z,99796.63
2019-02-02T22:20:23.148Z,99804.94
2019-02-02T22:25:34.125Z,99815.72
2019-02-02T22:30:40.144Z,99831.69
2019-02-02T22:35:47.671Z,99836.34
2019-02-02T22:40:53.775Z,99844.66
2019-02-02T22:45:59.947Z,99847.95
2019-02-02T22:51:07.554Z,99844.79
2019-02-02T22:56:13.853Z,99852.48
2019-02-02T23:01:23.893Z,99864.91
2019-02-02T23:06:46.088Z,99861.56
2019-02-02T23:12:12.702Z,99878.86
2019-02-02T23:17:20.382Z,99890.25
2019-02-02T23:22:28.371Z,99899.48
2019-02-02T23:27:34.764Z,99908.08
2019-02-02T23:32:41.845Z,99902.95
2019-02-02T23:37:49.279Z,99909.13
2019-02-02T23:42:55.537Z,99930.03
2019-02-02T23:48:02.608Z,99937.88
2019-02-02T23:53:10.856Z,99942.77
2019-02-02T23:58:17.625Z,99949.66
